O'Neill, NE

3:59 PM CDT on September 30, 2014 (GMT -0500)
The O'Neill Municipal-Baker | Change Station
CLOSE
Current Station
Airport
Location: O'Neill,
Elevation: 2031 ft
Nearby Weather Stations

Elev 2031 ft 42.47 °N, 98.69 °W | Updated 24 minutes ago

Scattered Clouds
Scattered Clouds
79 °F
Feels Like 79 °F
N
23
Wind Variable Wind from SW
Gusts 32 mph

Today
High -- | Low -- °F
--% Chance of Precip.
Yesterday
High -- | Low -- °F
Precip. -- in
7:30 AM 7:17 PM
Waxing Crescent, 40% visible
Pressure 29.67 in
Visibility 10.0 miles
Clouds Scattered Clouds 7500 ft
Scattered Clouds 9000 ft
Dew Point 50 °F
Humidity 36%
Rainfall 0.08 in
Snow Depth Not available.
UV 3 out of 12
Pollen 3.70 out of 12
Air Quality Not available.
Flu Activity Not available.
METAR KONL 302035Z AUTO 22020G28KT 10SM SCT075 SCT090 26/10 A2967 RMK AO2 T02600097

More Conditions Fewer Conditions

Pressure 29.67 in
Visibility 10.0 miles
Clouds Scattered Clouds 7500 ft
Scattered Clouds 9000 ft
Dew Point 50 °F
Humidity 36%
Rainfall 0.08 in
Snow Depth Not available.
UV 3 out of 12
Pollen 3.70 out of 12
Air Quality Not available.
Flu Activity Not available.
METAR KONL 302035Z AUTO 22020G28KT 10SM SCT075 SCT090 26/10 A2967 RMK AO2 T02600097

More Conditions Fewer Conditions

10-Day Weather Forecast

Almanac

Astronomy

Sep. 30, 2014 Rise Set
Actual Time 7:30 AM CDT 7:17 PM CDT
Civil Twilight 7:02 AM CDT 7:45 PM CDT
Nautical Twilight 6:29 AM CDT 8:18 PM CDT
Astronomical Twilight 5:56 AM CDT 8:51 PM CDT
Moon 1:45 PM CDT 11:43 PM CDT
Length of Visible Light 12h 43m
Length of Day
11h 47m
Tomorrow will be 2m 50s shorter.
Waxing Crescent, 40% of the Moon is Illuminated
Today
Waxing Crescent
Oct 1
First Quarter
Oct 8
Full
Oct 15
Last Quarter
Oct 23
New

Today's Extremes

State Highs State Lows

Community

WunderPhotos

Upload Photos

1,757,743 photos uploaded!

Nearby

Snow Depth

Station Depth Elevation
No new snow has been reported.

Earthquake Activity

City Distance Mag. Time & Date
No recent earthquake activity has been reported nearby.
Minimum magnitude displayed is 2.5.

Coastal Water Temperatures

Place Temperature
No Stations Reporting

Nearby Weather Stations